Time;durP1;ratioP1;P1;durP2;ratioP2;P2;SDS_P1;SDS_P2;PMS_P1;PMS_P2;Temp;Humidity;BMP_temperature;BMP_pressure;BME280_temperature;BME280_humidity;BME280_pressure;Samples;Min_cycle;Max_cycle;Signal;HPM_P1;HPM_P2
2022/07/30 00:02:04;;;;;;;9.90;6.03;;;26.00;99.90;;;;;;4911675;29;20032;-93
2022/07/30 00:04:31;;;;;;;10.15;5.85;;;26.00;99.90;;;;;;4910063;29;20028;-93
2022/07/30 00:06:59;;;;;;;7.07;6.00;;;26.00;99.90;;;;;;4908767;29;20044;-93
2022/07/30 00:09:26;;;;;;;8.27;6.43;;;26.00;99.90;;;;;;4908839;29;20028;-93
2022/07/30 00:11:53;;;;;;;9.35;5.80;;;26.00;99.90;;;;;;4910328;29;20100;-92
2022/07/30 00:14:22;;;;;;;7.82;5.60;;;25.90;99.90;;;;;;4909483;29;20135;-93
2022/07/30 00:16:49;;;;;;;8.32;5.80;;;25.90;99.90;;;;;;4908165;29;20036;-93
2022/07/30 00:19:15;;;;;;;10.05;6.25;;;25.90;99.90;;;;;;4908312;29;20056;-93
2022/07/30 00:21:42;;;;;;;7.97;7.13;;;25.90;99.90;;;;;;4909366;29;20028;-93
2022/07/30 00:24:09;;;;;;;9.98;7.03;;;25.90;99.90;;;;;;4909595;29;20114;-93
2022/07/30 00:26:37;;;;;;;8.07;6.35;;;25.80;99.90;;;;;;4909358;29;20044;-94
2022/07/30 00:29:08;;;;;;;9.13;6.47;;;25.80;99.90;;;;;;4909156;29;20084;-94
2022/07/30 00:31:35;;;;;;;9.65;7.43;;;25.80;99.90;;;;;;4910457;29;20028;-93
2022/07/30 00:34:02;;;;;;;10.05;6.60;;;25.80;99.90;;;;;;4908241;29;20039;-93
2022/07/30 00:36:28;;;;;;;8.13;6.75;;;25.80;99.90;;;;;;4908434;29;20063;-94
2022/07/30 00:38:55;;;;;;;7.70;6.30;;;25.80;99.90;;;;;;4909090;29;20024;-93
2022/07/30 00:41:22;;;;;;;9.82;6.72;;;25.80;99.90;;;;;;4910594;29;20115;-92
2022/07/30 00:43:48;;;;;;;9.88;6.70;;;25.80;99.90;;;;;;4919117;29;20034;-93
2022/07/30 00:46:15;;;;;;;9.00;6.40;;;25.80;99.90;;;;;;4914258;29;20059;-93
2022/07/30 00:48:42;;;;;;;9.65;6.25;;;25.80;99.90;;;;;;4911624;29;20390;-93
2022/07/30 00:51:09;;;;;;;9.02;6.78;;;25.90;99.90;;;;;;4911785;29;20297;-92
2022/07/30 00:53:37;;;;;;;8.95;6.53;;;25.90;99.90;;;;;;4910911;29;20565;-92
2022/07/30 00:56:04;;;;;;;8.10;6.20;;;25.90;99.90;;;;;;4909365;29;20138;-93
2022/07/30 00:58:31;;;;;;;8.57;6.10;;;25.90;99.90;;;;;;4907937;29;20127;-93
2022/07/30 01:00:58;;;;;;;8.98;6.75;;;25.80;99.90;;;;;;4907911;29;20043;-93
2022/07/30 01:03:25;;;;;;;6.97;5.68;;;25.80;99.90;;;;;;4907260;29;20028;-93
2022/07/30 01:05:51;;;;;;;9.05;6.25;;;25.80;99.90;;;;;;4906817;29;20666;-94
2022/07/30 01:08:18;;;;;;;7.90;6.10;;;25.70;99.90;;;;;;4907526;29;20123;-93
2022/07/30 01:10:45;;;;;;;7.20;5.90;;;25.60;99.90;;;;;;4906857;29;20028;-93
2022/07/30 01:13:12;;;;;;;10.25;7.25;;;25.60;99.90;;;;;;4906735;29;20036;-93
2022/07/30 01:15:39;;;;;;;7.75;6.00;;;25.70;99.90;;;;;;4905635;29;20036;-93
2022/07/30 01:18:10;;;;;;;9.90;6.75;;;25.70;99.90;;;;;;4906726;29;20037;-93
2022/07/30 01:20:59;;;;;;;12.80;6.85;;;25.80;99.90;;;;;;4905441;29;20043;-93
2022/07/30 01:23:38;;;;;;;8.90;7.25;;;25.90;99.90;;;;;;4905643;29;20032;-93
2022/07/30 01:26:19;;;;;;;9.52;6.47;;;25.80;99.90;;;;;;4905989;29;20028;-93
2022/07/30 01:28:53;;;;;;;7.05;6.35;;;25.80;99.90;;;;;;4905553;29;20028;-93
2022/07/30 01:31:24;;;;;;;8.00;6.03;;;25.80;99.90;;;;;;4905511;29;20115;-92
2022/07/30 01:33:56;;;;;;;10.68;6.93;;;25.80;99.90;;;;;;4904957;29;20037;-93
2022/07/30 01:36:23;;;;;;;7.43;6.60;;;25.80;99.90;;;;;;4905400;29;20059;-93
2022/07/30 01:38:51;;;;;;;8.20;6.28;;;25.80;99.90;;;;;;4910216;29;20043;-93
2022/07/30 01:41:19;;;;;;;9.18;7.28;;;25.80;99.90;;;;;;4907103;29;20040;-92
2022/07/30 01:43:47;;;;;;;9.55;6.53;;;25.70;99.90;;;;;;4905157;29;20525;-93
2022/07/30 01:46:16;;;;;;;8.05;6.60;;;25.60;99.90;;;;;;4904933;29;20043;-93
2022/07/30 01:48:47;;;;;;;6.63;6.00;;;25.50;99.90;;;;;;4904954;29;20032;-93
2022/07/30 01:51:18;;;;;;;9.15;6.57;;;25.50;99.90;;;;;;4904477;29;20083;-93
2022/07/30 01:53:54;;;;;;;7.20;6.50;;;25.50;99.90;;;;;;4905239;29;20044;-93
2022/07/30 01:56:24;;;;;;;8.77;6.35;;;25.50;99.90;;;;;;4905482;29;20129;-93
2022/07/30 01:58:58;;;;;;;8.73;6.45;;;25.40;99.90;;;;;;4905152;29;20055;-94
2022/07/30 02:01:27;;;;;;;9.77;6.70;;;25.40;99.90;;;;;;4905120;29;20043;-93
2022/07/30 02:04:02;;;;;;;9.77;7.00;;;25.30;99.90;;;;;;4904538;29;20033;-92
2022/07/30 02:06:58;;;;;;;9.10;7.50;;;25.40;99.90;;;;;;4904803;29;20118;-93
2022/07/30 02:09:33;;;;;;;9.70;6.82;;;25.50;99.90;;;;;;4904482;29;20123;-92
2022/07/30 02:15:14;;;;;;;10.50;7.32;;;25.50;99.90;;;;;;4904293;29;20056;-93
2022/07/30 02:17:45;;;;;;;9.02;6.85;;;25.40;99.90;;;;;;4903878;29;20024;-93
2022/07/30 02:20:14;;;;;;;7.22;6.40;;;25.30;99.90;;;;;;4908628;29;20036;-93
2022/07/30 02:22:45;;;;;;;7.85;6.45;;;25.20;99.90;;;;;;4905386;29;20057;-92
2022/07/30 02:25:17;;;;;;;10.85;6.50;;;25.10;99.90;;;;;;4903458;29;20040;-93
2022/07/30 02:27:49;;;;;;;10.25;6.60;;;25.10;99.90;;;;;;4903863;29;20034;-93
2022/07/30 02:30:16;;;;;;;9.55;6.80;;;25.10;99.90;;;;;;4904258;29;20036;-94
2022/07/30 02:32:47;;;;;;;9.38;7.22;;;25.10;99.90;;;;;;4904662;29;20431;-93
2022/07/30 02:35:19;;;;;;;8.32;6.40;;;25.10;99.90;;;;;;4904262;29;20104;-92
2022/07/30 02:37:49;;;;;;;10.10;7.10;;;25.10;99.90;;;;;;4903106;29;20027;-93
2022/07/30 02:40:19;;;;;;;7.65;6.80;;;25.10;99.90;;;;;;4902036;29;20032;-92
2022/07/30 02:42:52;;;;;;;13.80;8.48;;;25.00;99.90;;;;;;4902009;29;20517;-93
2022/07/30 02:45:24;;;;;;;10.45;6.70;;;25.00;99.90;;;;;;4901803;29;20028;-93
2022/07/30 02:48:05;;;;;;;9.45;6.97;;;25.00;99.90;;;;;;4903042;29;20043;-93
2022/07/30 02:50:34;;;;;;;8.32;7.53;;;25.00;99.90;;;;;;4902055;29;20055;-93
2022/07/30 02:53:02;;;;;;;11.02;7.28;;;25.10;99.90;;;;;;4901803;29;20115;-92
2022/07/30 02:55:34;;;;;;;9.52;7.40;;;25.10;99.90;;;;;;4902163;29;20413;-93
2022/07/30 02:58:06;;;;;;;10.45;7.40;;;25.10;99.90;;;;;;4903201;29;20024;-92
2022/07/30 03:00:36;;;;;;;9.55;6.97;;;25.00;99.90;;;;;;4902056;29;20036;-93
2022/07/30 03:03:06;;;;;;;8.02;7.03;;;25.00;99.90;;;;;;4901786;29;20024;-92
2022/07/30 03:05:38;;;;;;;7.72;6.88;;;24.90;99.90;;;;;;4904247;29;20104;-92
2022/07/30 03:08:07;;;;;;;7.88;6.60;;;24.90;99.90;;;;;;4902963;29;20095;-93
2022/07/30 03:10:35;;;;;;;7.30;6.55;;;24.80;99.90;;;;;;4902025;29;20481;-93
2022/07/30 03:13:05;;;;;;;10.85;6.95;;;24.80;99.90;;;;;;4901509;29;20036;-93
2022/07/30 03:15:36;;;;;;;11.05;7.25;;;24.70;99.90;;;;;;4901431;29;20051;-93
2022/07/30 03:18:12;;;;;;;10.80;7.20;;;24.60;99.90;;;;;;4901107;29;20505;-93
2022/07/30 03:20:40;;;;;;;10.52;6.57;;;24.50;99.90;;;;;;4901475;29;20044;-93
2022/07/30 03:23:11;;;;;;;10.35;7.13;;;24.40;99.90;;;;;;4908568;29;20047;-93
2022/07/30 03:25:44;;;;;;;9.40;6.50;;;24.30;99.90;;;;;;4909828;29;20035;-93
2022/07/30 03:28:16;;;;;;;10.43;6.95;;;24.20;99.90;;;;;;4886257;29;20032;-93
2022/07/30 03:30:43;;;;;;;11.70;6.88;;;24.10;99.90;;;;;;4901753;29;20032;-93
2022/07/30 03:33:14;;;;;;;9.75;7.22;;;24.10;99.90;;;;;;4902473;29;20107;-93
2022/07/30 03:35:44;;;;;;;9.48;7.35;;;24.10;99.90;;;;;;4902626;29;20032;-93
2022/07/30 03:38:13;;;;;;;8.57;6.80;;;24.00;99.90;;;;;;4904685;29;20439;-93
2022/07/30 03:40:45;;;;;;;8.07;6.72;;;24.00;99.90;;;;;;4907705;29;20090;-93
2022/07/30 03:43:13;;;;;;;9.25;6.82;;;24.00;99.90;;;;;;4902740;29;20028;-92
2022/07/30 03:45:44;;;;;;;8.55;7.00;;;24.00;99.90;;;;;;4901853;29;20108;-93
2022/07/30 03:48:12;;;;;;;8.52;6.22;;;24.00;99.90;;;;;;4905407;29;20032;-93
2022/07/30 03:50:44;;;;;;;11.02;7.15;;;24.10;99.90;;;;;;4901826;29;20028;-93
2022/07/30 03:53:12;;;;;;;8.90;7.28;;;24.10;99.90;;;;;;4900760;29;20028;-93
2022/07/30 03:55:59;;;;;;;9.68;6.97;;;24.10;99.90;;;;;;4903233;29;20055;-92
2022/07/30 03:58:53;;;;;;;13.85;7.97;;;24.20;99.90;;;;;;4904213;29;20132;-93
2022/07/30 04:01:26;;;;;;;7.88;7.00;;;24.30;99.90;;;;;;4885409;29;20067;-93
2022/07/30 04:04:07;;;;;;;9.95;7.40;;;24.30;99.90;;;;;;4900714;29;20035;-93
2022/07/30 04:06:39;;;;;;;10.15;6.93;;;24.40;99.90;;;;;;4901307;29;20036;-93
2022/07/30 04:09:08;;;;;;;9.52;7.07;;;24.50;99.90;;;;;;4901154;29;20445;-93
2022/07/30 04:11:36;;;;;;;9.85;7.32;;;24.60;99.90;;;;;;4900646;29;20043;-93
2022/07/30 04:14:05;;;;;;;9.43;6.60;;;24.70;99.90;;;;;;4900515;29;20037;-93
2022/07/30 04:16:43;;;;;;;9.73;6.70;;;24.70;99.90;;;;;;4900537;29;20043;-93
2022/07/30 04:19:47;;;;;;;10.82;7.10;;;24.80;99.90;;;;;;4900615;29;20032;-92
2022/07/30 04:22:27;;;;;;;9.98;7.68;;;24.80;99.90;;;;;;4900491;29;20032;-92
2022/07/30 04:24:55;;;;;;;10.73;7.25;;;24.80;99.90;;;;;;4900656;29;20075;-93
2022/07/30 04:27:24;;;;;;;9.73;6.43;;;24.80;99.90;;;;;;4900642;29;20109;-93
2022/07/30 04:29:55;;;;;;;10.90;7.57;;;24.90;99.90;;;;;;4885813;29;20117;-93
2022/07/30 04:32:22;;;;;;;10.25;7.30;;;25.00;99.90;;;;;;4904303;29;20036;-93
2022/07/30 04:34:55;;;;;;;13.50;7.80;;;25.10;99.90;;;;;;4907642;29;20119;-93
2022/07/30 04:37:48;;;;;;;10.43;8.25;;;25.10;99.90;;;;;;4907812;29;20040;-93
2022/07/30 04:40:15;;;;;;;14.02;7.90;;;25.30;99.90;;;;;;4904388;29;20036;-93
2022/07/30 04:42:41;;;;;;;11.43;7.95;;;25.40;99.90;;;;;;4893005;29;20028;-93
2022/07/30 04:45:11;;;;;;;12.25;8.57;;;25.50;99.90;;;;;;4904458;29;20111;-93
2022/07/30 04:48:07;;;;;;;13.63;7.20;;;25.70;99.90;;;;;;4891169;29;20032;-93
2022/07/30 04:50:57;;;;;;;16.08;7.53;;;26.10;99.90;;;;;;4906139;29;20036;-93
2022/07/30 04:53:28;;;;;;;11.98;7.38;;;27.20;99.90;;;;;;4903879;29;20028;-93
2022/07/30 04:56:00;;;;;;;13.18;7.10;;;28.30;99.90;;;;;;4889102;29;20036;-93
2022/07/30 04:58:30;;;;;;;15.82;6.65;;;29.50;99.90;;;;;;4904936;29;20115;-93
2022/07/30 05:01:02;;;;;;;10.18;6.90;;;30.60;99.90;;;;;;4904494;29;20122;-93
2022/07/30 05:03:34;;;;;;;;;;;31.80;99.90;;;;;;4906170;29;20409;-93
2022/07/30 05:06:02;;;;;;;10.40;6.43;;;32.40;99.90;;;;;;4905568;29;19918;-93
2022/07/30 05:08:33;;;;;;;10.40;7.03;;;33.10;99.90;;;;;;4905546;29;20028;-93
2022/07/30 05:11:03;;;;;;;8.30;6.80;;;33.40;99.90;;;;;;4908663;29;20036;-93
2022/07/30 05:13:34;;;;;;;11.63;7.20;;;33.70;99.90;;;;;;4910134;29;20032;-93
2022/07/30 05:16:01;;;;;;;12.02;8.13;;;34.00;99.90;;;;;;4911647;29;20044;-93
2022/07/30 05:18:28;;;;;;;10.48;7.78;;;34.30;99.90;;;;;;4911562;29;20125;-94
2022/07/30 05:20:56;;;;;;;12.68;8.05;;;34.20;99.90;;;;;;4909515;29;20036;-93
2022/07/30 05:23:34;;;;;;;8.73;7.80;;;35.10;99.90;;;;;;4909087;29;20028;-93
2022/07/30 05:26:21;;;;;;;10.63;7.22;;;35.50;99.90;;;;;;4912044;29;20035;-93
2022/07/30 05:28:51;;;;;;;7.97;7.18;;;35.30;99.90;;;;;;4908362;29;20035;-93
2022/07/30 05:31:20;;;;;;;8.75;7.25;;;35.00;99.90;;;;;;4906892;29;20055;-93
2022/07/30 05:33:57;;;;;;;10.18;7.50;;;34.90;99.90;;;;;;4906400;29;20051;-94
2022/07/30 05:36:27;;;;;;;9.65;7.00;;;34.90;99.90;;;;;;4905335;29;20044;-93
2022/07/30 05:38:54;;;;;;;8.95;6.63;;;34.10;99.90;;;;;;4905891;29;20393;-93
2022/07/30 05:41:39;;;;;;;8.93;6.80;;;34.30;99.90;;;;;;4905496;29;20068;-93
2022/07/30 05:44:16;;;;;;;13.10;7.45;;;34.50;99.90;;;;;;4904686;29;20513;-93
2022/07/30 05:46:43;;;;;;;9.07;6.80;;;34.10;99.90;;;;;;4905640;29;20035;-94
2022/07/30 05:49:10;;;;;;;6.47;5.88;;;34.50;99.90;;;;;;4904550;29;20486;-93
2022/07/30 05:51:37;;;;;;;9.00;5.88;;;35.20;99.90;;;;;;4905370;29;20024;-93
2022/07/30 05:54:04;;;;;;;7.72;6.90;;;35.20;99.90;;;;;;4903897;29;20108;-93
2022/07/30 05:56:43;;;;;;;7.03;5.85;;;35.60;99.90;;;;;;4903877;29;20108;-93
2022/07/30 05:59:28;;;;;;;7.22;6.53;;;35.40;99.90;;;;;;4909368;29;20103;-93
2022/07/30 06:02:21;;;;;;;7.65;6.97;;;35.10;99.90;;;;;;4887475;29;20072;-93
2022/07/30 06:05:20;;;;;;;7.30;6.57;;;35.60;99.90;;;;;;4911968;29;20044;-93
2022/07/30 06:07:48;;;;;;;9.70;6.68;;;35.80;99.90;;;;;;4914254;29;20032;-93
2022/07/30 06:10:17;;;;;;;7.78;6.53;;;36.50;99.90;;;;;;4908991;29;20028;-93
2022/07/30 06:12:44;;;;;;;8.40;7.28;;;36.30;99.90;;;;;;4893668;29;20028;-93
2022/07/30 06:15:11;;;;;;;8.10;7.40;;;36.20;99.90;;;;;;4905990;29;20119;-93
2022/07/30 06:17:42;;;;;;;9.10;8.30;;;35.80;99.90;;;;;;4907373;29;20048;-93
2022/07/30 06:20:19;;;;;;;9.38;7.38;;;36.30;99.90;;;;;;4907523;29;20028;-93
2022/07/30 06:23:04;;;;;;;9.90;9.00;;;36.20;99.90;;;;;;4910835;29;20399;-93
2022/07/30 06:25:49;;;;;;;10.65;9.80;;;36.50;99.90;;;;;;4905963;29;20028;-93
2022/07/30 06:28:18;;;;;;;10.68;9.80;;;36.90;99.90;;;;;;4906601;29;20047;-93
2022/07/30 06:30:47;;;;;;;10.48;9.30;;;37.00;99.90;;;;;;4907099;29;20032;-93
2022/07/30 06:33:15;;;;;;;11.43;10.43;;;37.10;99.90;;;;;;4921301;29;20481;-94
2022/07/30 06:35:42;;;;;;;11.88;11.02;;;37.10;99.90;;;;;;4907048;29;20032;-93
2022/07/30 06:38:11;;;;;;;12.35;11.50;;;36.90;99.90;;;;;;4902949;29;20476;-93
2022/07/30 06:40:55;;;;;;;12.27;11.18;;;37.30;99.90;;;;;;4912253;29;20067;-94
2022/07/30 06:43:34;;;;;;;12.20;11.20;;;37.40;99.90;;;;;;4909812;29;20552;-93
2022/07/30 06:46:21;;;;;;;13.00;11.90;;;37.70;99.90;;;;;;4925647;29;20040;-94
2022/07/30 06:48:50;;;;;;;11.32;10.50;;;37.60;99.90;;;;;;4915220;29;20039;-91
2022/07/30 06:51:17;;;;;;;13.38;12.18;;;37.80;99.90;;;;;;4923441;29;20036;-93
2022/07/30 06:53:44;;;;;;;12.80;11.98;;;37.70;99.90;;;;;;4925330;29;20055;-93
2022/07/30 06:56:13;;;;;;;13.15;12.13;;;37.80;99.90;;;;;;4924624;29;20047;-93
2022/07/30 07:01:45;;;;;;;14.48;13.25;;;36.40;99.90;;;;;;4861650;29;20632;-92
2022/07/30 07:04:14;;;;;;;14.02;12.55;;;36.90;99.90;;;;;;4861251;29;20072;-94
2022/07/30 07:06:40;;;;;;;13.93;12.85;;;36.70;99.90;;;;;;4862598;29;20057;-94
2022/07/30 07:09:09;;;;;;;13.23;12.38;;;37.40;99.90;;;;;;4863546;29;20029;-93
2022/07/30 07:11:51;;;;;;;13.45;12.65;;;37.60;99.90;;;;;;4884613;29;20037;-91
2022/07/30 07:14:20;;;;;;;13.10;12.20;;;38.30;99.90;;;;;;4885016;29;20037;-92
2022/07/30 07:16:48;;;;;;;13.80;12.40;;;38.30;99.90;;;;;;4893393;29;20037;-92
2022/07/30 07:19:45;;;;;;;13.43;12.30;;;37.60;99.90;;;;;;4880820;29;20040;-93
2022/07/30 07:22:11;;;;;;;13.70;12.77;;;37.60;99.90;;;;;;4890174;29;20545;-93
2022/07/30 07:24:39;;;;;;;13.70;12.40;;;38.10;99.90;;;;;;4882944;29;20115;-93
2022/07/30 07:27:12;;;;;;;14.48;13.40;;;37.30;99.90;;;;;;4886898;29;20033;-94
2022/07/30 07:29:47;;;;;;;13.27;12.38;;;38.50;99.90;;;;;;4864077;29;20036;-93
2022/07/30 07:32:15;;;;;;;14.35;13.20;;;38.70;99.90;;;;;;4883918;29;20041;-94
2022/07/30 07:34:43;;;;;;;14.52;13.48;;;39.00;99.90;;;;;;4882941;29;20041;-94
2022/07/30 07:37:10;;;;;;;14.07;12.77;;;38.20;99.90;;;;;;4867589;29;20025;-93
2022/07/30 07:39:36;;;;;;;13.60;12.52;;;37.70;99.90;;;;;;4847123;29;20170;-92
2022/07/30 07:42:03;;;;;;;13.30;12.15;;;37.80;99.90;;;;;;4864427;29;20074;-93
2022/07/30 07:44:30;;;;;;;14.70;13.30;;;37.40;99.90;;;;;;4862502;29;20045;-94
2022/07/30 07:46:57;;;;;;;13.77;12.60;;;37.30;99.90;;;;;;4861956;29;20022;-92
2022/07/30 07:50:09;;;;;;;;;;;;;;;;;;;;;
2022/07/30 07:53:37;;;;;;;;;;;;;;;;;;;;;
2022/07/30 07:59:42;;;;;;;14.18;12.70;;;37.60;99.90;;;;;;4953095;23;20047;-92
2022/07/30 08:02:32;;;;;;;13.02;12.02;;;37.60;99.90;;;;;;4896498;29;20081;-91
2022/07/30 08:05:43;;;;;;;;;;;;;;;;;;;;;
2022/07/30 08:09:09;;;;;;;13.60;12.38;;;37.80;99.90;;;;;;4893585;29;20044;-93
2022/07/30 08:12:07;;;;;;;13.10;12.13;;;37.80;99.90;;;;;;4783100;30;20086;-92
2022/07/30 08:21:15;;;;;;;12.35;11.38;;;38.20;99.90;;;;;;5375076;23;20032;-93
2022/07/30 08:23:58;;;;;;;13.05;12.00;;;38.20;99.90;;;;;;4900881;29;20036;-92
2022/07/30 08:26:25;;;;;;;11.82;10.93;;;37.80;99.90;;;;;;4857124;29;20041;-93
2022/07/30 08:28:58;;;;;;;12.57;11.43;;;37.80;99.90;;;;;;4860905;29;20025;-92
2022/07/30 08:31:40;;;;;;;13.00;11.82;;;38.40;99.90;;;;;;4863249;29;20041;-93
2022/07/30 08:38:14;;;;;;;12.27;11.48;;;38.30;99.90;;;;;;4901085;24;20032;-94
2022/07/30 08:41:07;;;;;;;13.32;12.23;;;38.40;99.90;;;;;;4868886;29;20050;-93
2022/07/30 08:43:38;;;;;;;12.80;11.90;;;39.40;99.90;;;;;;4872035;29;20056;-93
2022/07/30 08:46:10;;;;;;;12.75;11.95;;;39.30;99.90;;;;;;4854887;29;20070;-93
2022/07/30 08:48:51;;;;;;;14.25;12.98;;;38.40;99.90;;;;;;4853740;29;20046;-91
2022/07/30 08:51:21;;;;;;;12.75;11.85;;;38.80;99.90;;;;;;4853789;29;20034;-93
2022/07/30 08:54:28;;;;;;;13.45;12.30;;;38.80;99.90;;;;;;4857846;29;20032;-92
2022/07/30 08:56:58;;;;;;;13.27;12.35;;;37.90;99.90;;;;;;4840919;29;20042;-93
2022/07/30 08:59:28;;;;;;;13.55;12.35;;;37.80;99.90;;;;;;4836560;29;20031;-93
2022/07/30 09:01:56;;;;;;;13.05;12.20;;;37.40;99.90;;;;;;4833561;29;20125;-91
2022/07/30 09:04:23;;;;;;;14.00;12.82;;;37.10;99.90;;;;;;4833758;29;20129;-92
2022/07/30 09:06:52;;;;;;;13.10;12.27;;;37.60;99.90;;;;;;4825247;29;20101;-93
2022/07/30 09:09:20;;;;;;;13.98;12.32;;;38.30;99.90;;;;;;4835569;29;20038;-93
2022/07/30 09:11:51;;;;;;;13.50;12.25;;;38.90;99.90;;;;;;4852983;29;20041;-92
2022/07/30 09:14:18;;;;;;;13.05;11.93;;;38.80;99.90;;;;;;4826922;29;20109;-93
2022/07/30 09:16:45;;;;;;;13.70;12.60;;;38.50;99.90;;;;;;4824426;29;20086;-91
2022/07/30 09:19:20;;;;;;;13.20;12.00;;;38.40;99.90;;;;;;4822545;29;20034;-92
2022/07/30 09:22:10;;;;;;;12.27;11.35;;;37.90;99.90;;;;;;4822506;29;20049;-93
2022/07/30 09:25:10;;;;;;;13.25;11.95;;;38.20;99.90;;;;;;4819792;29;20042;-92
2022/07/30 09:27:54;;;;;;;13.73;12.63;;;38.50;99.90;;;;;;4893187;29;20044;-93
2022/07/30 09:31:00;;;;;;;12.98;11.90;;;38.30;99.90;;;;;;4869367;29;20052;-93
2022/07/30 09:33:48;;;;;;;13.48;12.20;;;38.20;99.90;;;;;;4862826;29;20492;-93
2022/07/30 09:36:35;;;;;;;13.25;12.10;;;38.20;99.90;;;;;;4892468;29;20135;-93
2022/07/30 09:39:36;;;;;;;12.90;11.93;;;37.30;99.90;;;;;;4894497;29;20205;-93
2022/07/30 09:42:27;;;;;;;12.73;11.82;;;37.30;99.90;;;;;;4890648;29;20091;-92
2022/07/30 09:45:13;;;;;;;13.55;12.40;;;36.80;99.90;;;;;;4945877;24;20052;-93
2022/07/30 09:48:27;;;;;;;13.38;12.38;;;37.10;99.90;;;;;;4908066;29;20012;-92
2022/07/30 10:44:05;;;;;;;13.98;12.70;;;37.60;99.90;;;;;;4958853;23;20048;-93
2022/07/30 10:47:17;;;;;;;13.48;12.30;;;36.80;99.90;;;;;;4875000;29;20463;-93
2022/07/30 10:50:31;;;;;;;13.90;12.80;;;36.40;99.90;;;;;;4869358;29;20093;-94
2022/07/30 10:53:50;;;;;;;13.52;12.38;;;36.10;99.90;;;;;;4873229;29;20040;-94
2022/07/30 10:57:13;;;;;;;14.45;13.35;;;36.40;99.90;;;;;;4889470;23;20093;-94
2022/07/30 11:06:15;;;;;;;13.38;12.48;;;36.60;99.90;;;;;;5299226;23;20115;-92
2022/07/30 11:09:02;;;;;;;14.20;13.00;;;36.20;99.90;;;;;;4876940;29;20024;-94
2022/07/30 11:11:47;;;;;;;13.32;12.38;;;36.40;99.90;;;;;;4873374;29;20041;-94
2022/07/30 11:14:15;;;;;;;14.60;13.18;;;36.40;99.90;;;;;;4868783;29;20051;-91
2022/07/30 11:16:42;;;;;;;14.02;12.63;;;36.60;99.90;;;;;;4867203;29;20119;-93
2022/07/30 11:20:09;;;;;;;13.88;12.63;;;36.40;99.90;;;;;;4867618;29;20029;-92
2022/07/30 11:25:55;;;;;;;13.57;12.38;;;36.00;99.90;;;;;;5030034;23;20058;-93
2022/07/30 11:28:40;;;;;;;13.50;12.45;;;35.90;99.90;;;;;;4909763;29;20079;-93
2022/07/30 11:31:28;;;;;;;13.43;12.43;;;35.70;99.90;;;;;;4911233;29;20032;-93
2022/07/30 11:34:16;;;;;;;13.13;12.10;;;35.70;99.90;;;;;;4884263;29;20511;-92
2022/07/30 11:37:01;;;;;;;13.38;12.45;;;35.80;99.90;;;;;;4881770;29;20049;-93
2022/07/30 11:39:52;;;;;;;13.27;12.32;;;35.90;99.90;;;;;;4881060;29;20190;-91
2022/07/30 11:42:25;;;;;;;13.05;11.98;;;35.80;99.90;;;;;;4873256;29;20551;-92
2022/07/30 11:44:52;;;;;;;13.90;12.60;;;35.50;99.90;;;;;;4880879;29;20052;-92
2022/07/30 11:47:19;;;;;;;14.27;13.25;;;35.70;99.90;;;;;;4879822;29;20376;-92
2022/07/30 11:49:46;;;;;;;15.13;13.82;;;35.60;99.90;;;;;;4880200;29;20082;-92
2022/07/30 11:52:23;;;;;;;16.40;15.00;;;35.70;99.90;;;;;;4869825;29;20041;-93
2022/07/30 11:54:54;;;;;;;16.17;14.77;;;35.80;99.90;;;;;;4880628;29;20090;-92
2022/07/30 11:57:40;;;;;;;15.48;14.27;;;36.00;99.90;;;;;;4881799;29;20037;-93
2022/07/30 12:00:07;;;;;;;15.18;14.13;;;36.10;99.90;;;;;;4880272;29;20105;-93
2022/07/30 12:02:41;;;;;;;16.63;15.27;;;36.10;99.90;;;;;;4880710;29;20062;-93
2022/07/30 12:05:11;;;;;;;16.85;15.57;;;36.30;99.90;;;;;;4882921;29;20447;-93
2022/07/30 12:14:00;;;;;;;17.98;16.30;;;36.00;99.90;;;;;;5379495;23;20071;-94
2022/07/30 12:19:30;;;;;;;15.98;14.68;;;35.60;99.90;;;;;;4923075;29;20528;-93
2022/07/30 12:22:00;;;;;;;14.30;13.25;;;35.80;99.90;;;;;;4893884;29;20036;-94
2022/07/30 12:24:50;;;;;;;13.88;12.88;;;35.50;99.90;;;;;;4910444;29;20545;-92
2022/07/30 12:27:38;;;;;;;14.05;13.05;;;35.10;99.90;;;;;;4908024;29;20032;-93
2022/07/30 12:30:16;;;;;;;17.83;16.33;;;35.20;99.90;;;;;;4906729;29;20036;-92
2022/07/30 12:32:45;;;;;;;18.38;16.80;;;35.40;99.90;;;;;;4901693;29;20047;-94
2022/07/30 12:35:12;;;;;;;17.48;16.02;;;35.40;99.90;;;;;;4907752;29;20051;-92
2022/07/30 12:38:10;;;;;;;14.40;13.27;;;35.60;99.90;;;;;;4909452;29;20484;-93
2022/07/30 12:41:03;;;;;;;14.25;13.23;;;35.30;99.90;;;;;;4901889;29;20036;-93
2022/07/30 12:50:38;;;;;;;13.80;12.80;;;35.80;99.90;;;;;;4920373;29;20131;-92
2022/07/30 14:27:09;;;;;;;16.02;14.77;;;35.40;99.90;;;;;;5361662;23;20057;-84
2022/07/30 14:29:36;;;;;;;15.15;14.13;;;35.40;99.90;;;;;;4878411;29;20036;-76
2022/07/30 14:32:02;;;;;;;15.80;14.60;;;35.00;99.90;;;;;;4899329;29;20048;-75
2022/07/30 14:34:29;;;;;;;19.42;17.90;;;34.90;99.90;;;;;;4900037;29;20112;-78
2022/07/30 14:36:56;;;;;;;15.43;14.15;;;34.90;99.90;;;;;;4882975;29;20024;-79
2022/07/30 14:39:23;;;;;;;21.00;19.25;;;35.20;99.90;;;;;;4883000;29;20036;-82
2022/07/30 14:41:50;;;;;;;17.10;15.88;;;35.10;99.90;;;;;;4899733;29;20025;-80
2022/07/30 14:47:48;;;;;;;14.93;14.02;;;35.30;99.90;;;;;;4824863;29;20090;-92
2022/07/30 14:53:11;;;;;;;14.95;13.93;;;35.40;99.90;;;;;;4922172;23;20056;-93
2022/07/30 14:55:38;;;;;;;14.85;13.82;;;35.40;99.90;;;;;;4901460;29;20481;-91
2022/07/30 14:58:05;;;;;;;14.45;13.40;;;35.20;99.90;;;;;;4901500;29;20051;-92
2022/07/30 15:00:31;;;;;;;14.43;13.52;;;35.40;99.90;;;;;;4900482;29;20114;-92
2022/07/30 15:02:57;;;;;;;15.10;14.00;;;35.50;99.90;;;;;;4901577;29;20032;-93
2022/07/30 15:05:24;;;;;;;14.70;13.80;;;35.70;99.90;;;;;;4901425;29;20100;-92
2022/07/30 15:07:51;;;;;;;15.07;13.77;;;35.40;99.90;;;;;;4901279;29;20028;-91
2022/07/30 15:10:17;;;;;;;14.65;13.55;;;35.10;99.90;;;;;;4901724;29;20500;-92
2022/07/30 15:12:44;;;;;;;15.63;14.00;;;34.90;99.90;;;;;;4885772;29;20482;-93
2022/07/30 15:15:11;;;;;;;15.00;13.95;;;34.90;99.90;;;;;;4900745;29;20095;-92
2022/07/30 15:17:38;;;;;;;14.88;13.55;;;34.90;99.90;;;;;;4901775;29;20031;-94
2022/07/30 15:20:10;;;;;;;14.30;13.30;;;34.90;99.90;;;;;;4901352;29;20502;-93
2022/07/30 15:22:37;;;;;;;14.63;13.20;;;34.60;99.90;;;;;;4902969;29;20043;-92
2022/07/30 15:25:05;;;;;;;15.00;13.90;;;34.40;99.90;;;;;;4901354;29;20032;-94
2022/07/30 15:27:31;;;;;;;13.80;13.00;;;34.30;99.90;;;;;;4901821;29;20031;-91
2022/07/30 15:29:58;;;;;;;15.45;14.38;;;34.30;99.90;;;;;;4900972;29;20122;-91
2022/07/30 15:32:25;;;;;;;15.32;14.20;;;34.50;99.90;;;;;;4901025;29;20040;-91
2022/07/30 15:34:51;;;;;;;14.80;13.75;;;34.50;99.90;;;;;;4900948;29;20096;-90
2022/07/30 15:37:18;;;;;;;14.75;13.57;;;34.40;99.90;;;;;;4901112;29;20478;-92
2022/07/30 15:39:44;;;;;;;14.43;13.32;;;34.40;99.90;;;;;;4901052;29;20080;-91
2022/07/30 15:42:11;;;;;;;14.43;13.48;;;34.20;99.90;;;;;;4900823;29;20036;-91
2022/07/30 15:44:38;;;;;;;14.15;13.25;;;34.20;99.90;;;;;;4900979;29;20032;-88
2022/07/30 15:47:04;;;;;;;14.27;13.15;;;34.10;99.90;;;;;;4901906;29;20028;-91
2022/07/30 15:49:31;;;;;;;14.68;13.68;;;34.10;99.90;;;;;;4901423;29;20127;-88
2022/07/30 15:52:00;;;;;;;14.45;13.45;;;34.20;99.90;;;;;;4901142;29;20080;-93
2022/07/30 15:54:27;;;;;;;15.02;14.07;;;33.90;99.90;;;;;;4901159;29;20047;-91
2022/07/30 15:56:57;;;;;;;15.73;14.63;;;33.80;99.90;;;;;;4900941;29;20486;-90
2022/07/30 15:59:23;;;;;;;16.17;14.93;;;33.70;99.90;;;;;;4900925;29;20142;-92
2022/07/30 16:01:50;;;;;;;15.48;14.38;;;33.90;99.90;;;;;;4900843;29;20167;-90
2022/07/30 16:04:16;;;;;;;15.57;14.27;;;33.70;99.90;;;;;;4900881;29;20210;-92
2022/07/30 16:06:43;;;;;;;15.00;13.80;;;33.60;99.90;;;;;;4900790;29;20091;-92
2022/07/30 16:09:09;;;;;;;14.80;13.70;;;33.50;99.90;;;;;;4901910;29;20060;-91
2022/07/30 16:11:36;;;;;;;16.45;14.00;;;33.50;99.90;;;;;;4901104;29;20032;-93
2022/07/30 16:14:03;;;;;;;14.68;13.50;;;33.60;99.90;;;;;;4902024;29;20032;-93
2022/07/30 16:16:29;;;;;;;14.45;13.52;;;33.60;99.90;;;;;;4901224;29;20401;-91
2022/07/30 16:18:56;;;;;;;14.18;13.18;;;33.50;99.90;;;;;;4903617;29;20116;-93
2022/07/30 16:21:22;;;;;;;15.40;14.13;;;33.30;99.90;;;;;;4906424;29;20024;-90
2022/07/30 16:23:51;;;;;;;20.85;18.60;;;33.40;99.90;;;;;;4900989;29;20099;-92
2022/07/30 16:26:19;;;;;;;19.45;17.70;;;33.20;99.90;;;;;;4906248;29;20111;-93
2022/07/30 16:28:46;;;;;;;14.63;13.48;;;33.20;99.90;;;;;;4904392;29;20080;-92
2022/07/30 16:31:13;;;;;;;14.10;13.00;;;33.20;99.90;;;;;;4905315;29;20119;-92
2022/07/30 16:33:39;;;;;;;14.65;13.45;;;33.20;99.90;;;;;;4903868;29;20048;-93